sensor_id;sensor_type;location;lat;lon;timestamp;temperature;humidity
70801;DHT22;59616;52.170;5.386;2022-10-01T00:01:05;12.30;82.80
70801;DHT22;59616;52.170;5.386;2022-10-01T00:03:33;12.30;82.90
70801;DHT22;59616;52.170;5.386;2022-10-01T00:06:05;12.30;83.00
70801;DHT22;59616;52.170;5.386;2022-10-01T00:08:36;12.30;83.30
70801;DHT22;59616;52.170;5.386;2022-10-01T00:11:21;12.30;83.20
70801;DHT22;59616;52.170;5.386;2022-10-01T00:13:49;12.30;83.30
70801;DHT22;59616;52.170;5.386;2022-10-01T00:16:18;12.30;84.30
70801;DHT22;59616;52.170;5.386;2022-10-01T00:18:47;12.30;83.50
70801;DHT22;59616;52.170;5.386;2022-10-01T00:21:17;12.30;83.60
70801;DHT22;59616;52.170;5.386;2022-10-01T00:23:44;12.30;83.70
70801;DHT22;59616;52.170;5.386;2022-10-01T00:26:21;12.30;84.60
70801;DHT22;59616;52.170;5.386;2022-10-01T00:28:56;12.30;83.90
70801;DHT22;59616;52.170;5.386;2022-10-01T00:31:24;12.30;84.00
70801;DHT22;59616;52.170;5.386;2022-10-01T00:33:56;12.20;84.00
70801;DHT22;59616;52.170;5.386;2022-10-01T00:36:25;12.20;84.20
70801;DHT22;59616;52.170;5.386;2022-10-01T00:38:52;12.20;84.30
70801;DHT22;59616;52.170;5.386;2022-10-01T00:41:19;12.20;84.30
70801;DHT22;59616;52.170;5.386;2022-10-01T00:43:49;12.20;84.50
70801;DHT22;59616;52.170;5.386;2022-10-01T00:49:06;12.20;84.60
70801;DHT22;59616;52.170;5.386;2022-10-01T00:51:40;12.20;84.70
70801;DHT22;59616;52.170;5.386;2022-10-01T00:54:11;12.20;84.80
70801;DHT22;59616;52.170;5.386;2022-10-01T00:56:40;12.20;84.90
70801;DHT22;59616;52.170;5.386;2022-10-01T00:59:07;12.20;84.90
70801;DHT22;59616;52.170;5.386;2022-10-01T01:01:35;12.20;85.00
70801;DHT22;59616;52.170;5.386;2022-10-01T01:04:03;12.20;85.00
70801;DHT22;59616;52.170;5.386;2022-10-01T01:06:43;12.20;85.20
70801;DHT22;59616;52.170;5.386;2022-10-01T01:09:11;12.20;85.30
70801;DHT22;59616;52.170;5.386;2022-10-01T01:15:14;12.20;85.30
70801;DHT22;59616;52.170;5.386;2022-10-01T01:17:55;12.20;85.30
70801;DHT22;59616;52.170;5.386;2022-10-01T01:25:51;12.20;85.60
70801;DHT22;59616;52.170;5.386;2022-10-01T01:28:23;12.20;85.80
70801;DHT22;59616;52.170;5.386;2022-10-01T01:30:53;12.20;85.80
70801;DHT22;59616;52.170;5.386;2022-10-01T01:33:24;12.20;85.80
70801;DHT22;59616;52.170;5.386;2022-10-01T01:35:58;12.10;86.00
70801;DHT22;59616;52.170;5.386;2022-10-01T01:38:30;12.20;86.20
70801;DHT22;59616;52.170;5.386;2022-10-01T01:41:00;12.20;86.10
70801;DHT22;59616;52.170;5.386;2022-10-01T01:43:34;12.20;86.10
70801;DHT22;59616;52.170;5.386;2022-10-01T01:46:03;12.20;86.10
70801;DHT22;59616;52.170;5.386;2022-10-01T01:48:32;12.20;86.10
70801;DHT22;59616;52.170;5.386;2022-10-01T01:51:08;12.20;86.20
70801;DHT22;59616;52.170;5.386;2022-10-01T01:53:37;12.20;86.20
70801;DHT22;59616;52.170;5.386;2022-10-01T01:56:05;12.20;86.40
70801;DHT22;59616;52.170;5.386;2022-10-01T01:58:34;12.20;86.50
70801;DHT22;59616;52.170;5.386;2022-10-01T02:01:02;12.20;86.60
70801;DHT22;59616;52.170;5.386;2022-10-01T02:03:29;12.20;86.70
70801;DHT22;59616;52.170;5.386;2022-10-01T02:08:54;12.20;86.90
70801;DHT22;59616;52.170;5.386;2022-10-01T02:11:29;12.20;86.90
70801;DHT22;59616;52.170;5.386;2022-10-01T02:14:37;12.20;87.00
70801;DHT22;59616;52.170;5.386;2022-10-01T02:17:14;12.20;87.00
70801;DHT22;59616;52.170;5.386;2022-10-01T02:22:48;12.20;87.00
70801;DHT22;59616;52.170;5.386;2022-10-01T02:25:17;12.20;87.10
70801;DHT22;59616;52.170;5.386;2022-10-01T02:27:55;12.20;87.30
70801;DHT22;59616;52.170;5.386;2022-10-01T02:30:29;12.20;87.30
70801;DHT22;59616;52.170;5.386;2022-10-01T02:32:58;12.20;87.30
70801;DHT22;59616;52.170;5.386;2022-10-01T02:35:28;12.20;87.30
70801;DHT22;59616;52.170;5.386;2022-10-01T02:37:58;12.20;87.40
70801;DHT22;59616;52.170;5.386;2022-10-01T02:40:29;12.20;87.50
70801;DHT22;59616;52.170;5.386;2022-10-01T02:43:04;12.20;87.60
70801;DHT22;59616;52.170;5.386;2022-10-01T02:45:33;12.20;87.70
70801;DHT22;59616;52.170;5.386;2022-10-01T02:48:08;12.20;87.70
70801;DHT22;59616;52.170;5.386;2022-10-01T02:50:51;12.20;87.80
70801;DHT22;59616;52.170;5.386;2022-10-01T02:53:35;12.30;87.90
70801;DHT22;59616;52.170;5.386;2022-10-01T02:56:03;12.30;87.80
70801;DHT22;59616;52.170;5.386;2022-10-01T02:58:31;12.30;87.80
70801;DHT22;59616;52.170;5.386;2022-10-01T03:00:57;12.30;87.90
70801;DHT22;59616;52.170;5.386;2022-10-01T03:03:24;12.30;88.00
70801;DHT22;59616;52.170;5.386;2022-10-01T03:05:51;12.30;87.80
70801;DHT22;59616;52.170;5.386;2022-10-01T03:08:18;12.30;87.80
70801;DHT22;59616;52.170;5.386;2022-10-01T03:10:44;12.30;87.90
70801;DHT22;59616;52.170;5.386;2022-10-01T03:13:12;12.40;87.90
70801;DHT22;59616;52.170;5.386;2022-10-01T03:15:39;12.30;88.00
70801;DHT22;59616;52.170;5.386;2022-10-01T03:18:06;12.40;88.10
70801;DHT22;59616;52.170;5.386;2022-10-01T03:20:32;12.40;88.30
70801;DHT22;59616;52.170;5.386;2022-10-01T03:22:59;12.40;88.20
70801;DHT22;59616;52.170;5.386;2022-10-01T03:25:26;12.40;88.20
70801;DHT22;59616;52.170;5.386;2022-10-01T03:27:52;12.40;88.30
70801;DHT22;59616;52.170;5.386;2022-10-01T03:30:19;12.50;88.20
70801;DHT22;59616;52.170;5.386;2022-10-01T03:32:46;12.50;88.20
70801;DHT22;59616;52.170;5.386;2022-10-01T03:35:13;12.50;88.20
70801;DHT22;59616;52.170;5.386;2022-10-01T03:37:40;12.50;88.20
70801;DHT22;59616;52.170;5.386;2022-10-01T03:40:07;12.60;88.20
70801;DHT22;59616;52.170;5.386;2022-10-01T03:42:33;12.60;88.10
70801;DHT22;59616;52.170;5.386;2022-10-01T03:45:00;12.60;88.20
70801;DHT22;59616;52.170;5.386;2022-10-01T03:47:27;12.60;88.00
70801;DHT22;59616;52.170;5.386;2022-10-01T03:49:53;12.60;88.00
70801;DHT22;59616;52.170;5.386;2022-10-01T03:52:20;12.60;88.00
70801;DHT22;59616;52.170;5.386;2022-10-01T03:54:46;12.70;88.00
70801;DHT22;59616;52.170;5.386;2022-10-01T03:57:13;12.70;88.10
70801;DHT22;59616;52.170;5.386;2022-10-01T03:59:40;12.70;88.10
70801;DHT22;59616;52.170;5.386;2022-10-01T04:02:07;12.70;88.00
70801;DHT22;59616;52.170;5.386;2022-10-01T04:04:34;12.70;88.10
70801;DHT22;59616;52.170;5.386;2022-10-01T04:07:00;12.80;88.20
70801;DHT22;59616;52.170;5.386;2022-10-01T04:09:27;12.80;88.10
70801;DHT22;59616;52.170;5.386;2022-10-01T04:11:54;12.80;88.10
70801;DHT22;59616;52.170;5.386;2022-10-01T04:14:21;12.80;88.10
70801;DHT22;59616;52.170;5.386;2022-10-01T04:16:47;12.90;88.10
70801;DHT22;59616;52.170;5.386;2022-10-01T04:19:17;12.90;88.10
70801;DHT22;59616;52.170;5.386;2022-10-01T04:21:45;12.90;88.10
70801;DHT22;59616;52.170;5.386;2022-10-01T04:24:11;12.90;88.30
70801;DHT22;59616;52.170;5.386;2022-10-01T04:26:38;12.90;88.40
70801;DHT22;59616;52.170;5.386;2022-10-01T04:29:04;12.90;88.30
70801;DHT22;59616;52.170;5.386;2022-10-01T04:31:31;13.00;88.20
70801;DHT22;59616;52.170;5.386;2022-10-01T04:34:01;13.00;88.20
70801;DHT22;59616;52.170;5.386;2022-10-01T04:36:28;13.00;88.20
70801;DHT22;59616;52.170;5.386;2022-10-01T04:38:55;13.00;88.20
70801;DHT22;59616;52.170;5.386;2022-10-01T04:41:28;13.00;88.10
70801;DHT22;59616;52.170;5.386;2022-10-01T04:43:56;13.10;88.10
70801;DHT22;59616;52.170;5.386;2022-10-01T04:46:24;13.10;88.30
70801;DHT22;59616;52.170;5.386;2022-10-01T04:48:51;13.10;88.30
70801;DHT22;59616;52.170;5.386;2022-10-01T04:51:18;13.10;88.30
70801;DHT22;59616;52.170;5.386;2022-10-01T04:53:44;13.20;88.20
70801;DHT22;59616;52.170;5.386;2022-10-01T04:56:11;13.20;88.20
70801;DHT22;59616;52.170;5.386;2022-10-01T04:58:38;13.20;88.20
70801;DHT22;59616;52.170;5.386;2022-10-01T05:01:04;13.20;88.10
70801;DHT22;59616;52.170;5.386;2022-10-01T05:03:31;13.20;88.20
70801;DHT22;59616;52.170;5.386;2022-10-01T05:05:58;13.20;88.30
70801;DHT22;59616;52.170;5.386;2022-10-01T05:08:24;13.20;88.20
70801;DHT22;59616;52.170;5.386;2022-10-01T05:10:51;13.20;88.30
70801;DHT22;59616;52.170;5.386;2022-10-01T05:13:18;13.30;88.30
70801;DHT22;59616;52.170;5.386;2022-10-01T05:15:47;13.20;88.30
70801;DHT22;59616;52.170;5.386;2022-10-01T05:18:13;13.20;88.20
70801;DHT22;59616;52.170;5.386;2022-10-01T05:20:40;13.30;88.40
70801;DHT22;59616;52.170;5.386;2022-10-01T05:23:07;13.30;88.30
70801;DHT22;59616;52.170;5.386;2022-10-01T05:25:33;13.30;88.30
70801;DHT22;59616;52.170;5.386;2022-10-01T05:28:01;13.30;88.20
70801;DHT22;59616;52.170;5.386;2022-10-01T05:30:32;13.30;88.30
70801;DHT22;59616;52.170;5.386;2022-10-01T05:33:01;13.30;88.50
70801;DHT22;59616;52.170;5.386;2022-10-01T05:35:28;13.30;88.50
70801;DHT22;59616;52.170;5.386;2022-10-01T05:38:00;13.30;88.40
70801;DHT22;59616;52.170;5.386;2022-10-01T05:40:27;13.30;88.30
70801;DHT22;59616;52.170;5.386;2022-10-01T05:42:58;13.30;88.40
70801;DHT22;59616;52.170;5.386;2022-10-01T05:45:29;13.30;88.50
70801;DHT22;59616;52.170;5.386;2022-10-01T05:48:01;13.20;88.70
70801;DHT22;59616;52.170;5.386;2022-10-01T05:50:29;13.20;88.80
70801;DHT22;59616;52.170;5.386;2022-10-01T05:53:00;13.20;88.80
70801;DHT22;59616;52.170;5.386;2022-10-01T05:55:28;13.20;88.90
70801;DHT22;59616;52.170;5.386;2022-10-01T05:58:07;13.10;89.00
70801;DHT22;59616;52.170;5.386;2022-10-01T06:00:37;13.20;89.10
70801;DHT22;59616;52.170;5.386;2022-10-01T06:03:05;13.20;89.10
70801;DHT22;59616;52.170;5.386;2022-10-01T06:05:34;13.10;89.10
70801;DHT22;59616;52.170;5.386;2022-10-01T06:08:04;13.10;89.10
70801;DHT22;59616;52.170;5.386;2022-10-01T06:10:31;13.10;89.20
70801;DHT22;59616;52.170;5.386;2022-10-01T06:13:00;13.20;89.30
70801;DHT22;59616;52.170;5.386;2022-10-01T06:15:28;13.10;89.10
70801;DHT22;59616;52.170;5.386;2022-10-01T06:17:55;13.20;89.20
70801;DHT22;59616;52.170;5.386;2022-10-01T06:20:21;13.10;89.20
70801;DHT22;59616;52.170;5.386;2022-10-01T06:22:54;13.20;89.10
70801;DHT22;59616;52.170;5.386;2022-10-01T06:25:22;13.20;89.10
70801;DHT22;59616;52.170;5.386;2022-10-01T06:27:52;13.20;89.10
70801;DHT22;59616;52.170;5.386;2022-10-01T06:30:21;13.20;89.10
70801;DHT22;59616;52.170;5.386;2022-10-01T06:32:47;13.20;89.10
70801;DHT22;59616;52.170;5.386;2022-10-01T06:35:14;13.20;89.20
70801;DHT22;59616;52.170;5.386;2022-10-01T06:37:41;13.30;89.40
70801;DHT22;59616;52.170;5.386;2022-10-01T06:40:08;13.30;89.10
70801;DHT22;59616;52.170;5.386;2022-10-01T06:42:35;13.30;89.20
70801;DHT22;59616;52.170;5.386;2022-10-01T06:45:01;13.30;89.20
70801;DHT22;59616;52.170;5.386;2022-10-01T06:47:28;13.30;89.00
70801;DHT22;59616;52.170;5.386;2022-10-01T06:49:54;13.40;89.10
70801;DHT22;59616;52.170;5.386;2022-10-01T06:52:21;13.40;89.00
70801;DHT22;59616;52.170;5.386;2022-10-01T06:55:07;13.40;89.10
70801;DHT22;59616;52.170;5.386;2022-10-01T06:57:36;13.50;89.20
70801;DHT22;59616;52.170;5.386;2022-10-01T07:00:03;13.50;89.30
70801;DHT22;59616;52.170;5.386;2022-10-01T07:02:30;13.50;89.30
70801;DHT22;59616;52.170;5.386;2022-10-01T07:04:58;13.60;89.60
70801;DHT22;59616;52.170;5.386;2022-10-01T07:07:32;13.60;89.50
70801;DHT22;59616;52.170;5.386;2022-10-01T07:10:02;13.70;89.60
70801;DHT22;59616;52.170;5.386;2022-10-01T07:12:29;13.80;89.50
70801;DHT22;59616;52.170;5.386;2022-10-01T07:14:56;14.00;89.60
70801;DHT22;59616;52.170;5.386;2022-10-01T07:17:23;14.20;89.60
70801;DHT22;59616;52.170;5.386;2022-10-01T07:19:50;14.30;89.40
70801;DHT22;59616;52.170;5.386;2022-10-01T07:22:16;14.50;89.10
70801;DHT22;59616;52.170;5.386;2022-10-01T07:24:50;14.70;88.70
70801;DHT22;59616;52.170;5.386;2022-10-01T07:27:18;14.80;88.20
70801;DHT22;59616;52.170;5.386;2022-10-01T07:29:45;14.80;88.10
70801;DHT22;59616;52.170;5.386;2022-10-01T07:32:12;14.80;88.20
70801;DHT22;59616;52.170;5.386;2022-10-01T07:34:38;14.90;88.10
70801;DHT22;59616;52.170;5.386;2022-10-01T07:37:07;14.90;88.00
70801;DHT22;59616;52.170;5.386;2022-10-01T07:39:34;14.90;87.90
70801;DHT22;59616;52.170;5.386;2022-10-01T07:42:01;15.00;87.90
70801;DHT22;59616;52.170;5.386;2022-10-01T07:44:28;14.90;87.70
70801;DHT22;59616;52.170;5.386;2022-10-01T07:46:56;14.90;87.80
70801;DHT22;59616;52.170;5.386;2022-10-01T07:49:23;15.00;88.10
70801;DHT22;59616;52.170;5.386;2022-10-01T07:51:53;15.00;88.20
70801;DHT22;59616;52.170;5.386;2022-10-01T07:54:20;15.10;88.00
70801;DHT22;59616;52.170;5.386;2022-10-01T07:56:48;15.10;87.90
70801;DHT22;59616;52.170;5.386;2022-10-01T07:59:18;15.20;87.90
70801;DHT22;59616;52.170;5.386;2022-10-01T08:01:50;15.20;88.00
70801;DHT22;59616;52.170;5.386;2022-10-01T08:04:20;15.30;87.90
70801;DHT22;59616;52.170;5.386;2022-10-01T08:07:06;15.40;87.80
70801;DHT22;59616;52.170;5.386;2022-10-01T08:09:34;15.40;87.40
70801;DHT22;59616;52.170;5.386;2022-10-01T08:12:01;15.40;87.40
70801;DHT22;59616;52.170;5.386;2022-10-01T08:14:28;15.40;87.70
70801;DHT22;59616;52.170;5.386;2022-10-01T08:16:56;15.50;87.70
70801;DHT22;59616;52.170;5.386;2022-10-01T08:19:23;15.60;87.70
70801;DHT22;59616;52.170;5.386;2022-10-01T08:21:50;15.60;87.30
70801;DHT22;59616;52.170;5.386;2022-10-01T08:24:16;15.70;87.30
70801;DHT22;59616;52.170;5.386;2022-10-01T08:26:43;15.70;87.20
70801;DHT22;59616;52.170;5.386;2022-10-01T08:29:10;15.80;87.10
70801;DHT22;59616;52.170;5.386;2022-10-01T08:31:42;15.80;87.10
70801;DHT22;59616;52.170;5.386;2022-10-01T08:34:09;15.90;86.90
70801;DHT22;59616;52.170;5.386;2022-10-01T08:36:35;15.90;86.50
70801;DHT22;59616;52.170;5.386;2022-10-01T08:39:03;15.90;86.50
70801;DHT22;59616;52.170;5.386;2022-10-01T08:44:15;15.90;86.50
70801;DHT22;59616;52.170;5.386;2022-10-01T08:46:44;15.90;86.90
70801;DHT22;59616;52.170;5.386;2022-10-01T08:49:18;16.10;86.80
70801;DHT22;59616;52.170;5.386;2022-10-01T08:52:07;16.40;86.40
70801;DHT22;59616;52.170;5.386;2022-10-01T08:54:45;16.60;85.60
70801;DHT22;59616;52.170;5.386;2022-10-01T08:57:19;16.60;84.90
70801;DHT22;59616;52.170;5.386;2022-10-01T08:59:57;16.60;85.00
70801;DHT22;59616;52.170;5.386;2022-10-01T09:02:30;16.50;84.70
70801;DHT22;59616;52.170;5.386;2022-10-01T09:05:21;16.50;84.60
70801;DHT22;59616;52.170;5.386;2022-10-01T09:13:27;16.40;84.80
70801;DHT22;59616;52.170;5.386;2022-10-01T09:21:23;16.50;84.50
70801;DHT22;59616;52.170;5.386;2022-10-01T09:24:03;16.50;84.50
70801;DHT22;59616;52.170;5.386;2022-10-01T09:26:30;16.60;84.60
70801;DHT22;59616;52.170;5.386;2022-10-01T09:28:58;16.70;84.70
70801;DHT22;59616;52.170;5.386;2022-10-01T09:31:38;16.90;84.40
70801;DHT22;59616;52.170;5.386;2022-10-01T09:34:56;17.00;83.90
70801;DHT22;59616;52.170;5.386;2022-10-01T09:37:08;17.00;83.20
70801;DHT22;59616;52.170;5.386;2022-10-01T09:42:25;16.90;83.20
70801;DHT22;59616;52.170;5.386;2022-10-01T09:44:52;16.80;83.60
70801;DHT22;59616;52.170;5.386;2022-10-01T09:47:21;17.10;84.00
70801;DHT22;59616;52.170;5.386;2022-10-01T09:49:48;17.40;83.20
70801;DHT22;59616;52.170;5.386;2022-10-01T09:52:32;17.80;82.60
70801;DHT22;59616;52.170;5.386;2022-10-01T09:57:36;18.40;81.10
70801;DHT22;59616;52.170;5.386;2022-10-01T10:00:10;18.70;80.20
70801;DHT22;59616;52.170;5.386;2022-10-01T10:02:42;18.90;79.10
70801;DHT22;59616;52.170;5.386;2022-10-01T10:05:41;18.90;77.90
70801;DHT22;59616;52.170;5.386;2022-10-01T10:08:14;18.50;77.60
70801;DHT22;59616;52.170;5.386;2022-10-01T10:11:00;18.10;78.20
70801;DHT22;59616;52.170;5.386;2022-10-01T10:13:38;17.70;78.90
70801;DHT22;59616;52.170;5.386;2022-10-01T10:16:22;17.60;80.90
70801;DHT22;59616;52.170;5.386;2022-10-01T10:19:02;17.80;80.30
70801;DHT22;59616;52.170;5.386;2022-10-01T10:21:32;18.00;79.90
70801;DHT22;59616;52.170;5.386;2022-10-01T10:24:02;18.20;79.40
70801;DHT22;59616;52.170;5.386;2022-10-01T10:26:33;18.10;78.40
70801;DHT22;59616;52.170;5.386;2022-10-01T10:29:02;18.10;78.10
70801;DHT22;59616;52.170;5.386;2022-10-01T10:31:42;18.00;77.10
70801;DHT22;59616;52.170;5.386;2022-10-01T10:34:20;17.70;77.10
70801;DHT22;59616;52.170;5.386;2022-10-01T10:36:57;17.60;77.50
70801;DHT22;59616;52.170;5.386;2022-10-01T10:39:26;17.80;77.70
70801;DHT22;59616;52.170;5.386;2022-10-01T10:41:58;18.00;76.70
70801;DHT22;59616;52.170;5.386;2022-10-01T10:44:28;18.20;76.60
70801;DHT22;59616;52.170;5.386;2022-10-01T10:47:02;18.40;76.50
70801;DHT22;59616;52.170;5.386;2022-10-01T10:49:31;18.70;75.70
70801;DHT22;59616;52.170;5.386;2022-10-01T10:52:00;19.00;74.60
70801;DHT22;59616;52.170;5.386;2022-10-01T10:54:30;19.20;73.40
70801;DHT22;59616;52.170;5.386;2022-10-01T10:57:03;19.20;71.90
70801;DHT22;59616;52.170;5.386;2022-10-01T10:59:41;19.20;71.00
70801;DHT22;59616;52.170;5.386;2022-10-01T11:02:20;19.40;70.90
70801;DHT22;59616;52.170;5.386;2022-10-01T11:04:49;19.50;70.70
70801;DHT22;59616;52.170;5.386;2022-10-01T11:07:20;19.50;70.40
70801;DHT22;59616;52.170;5.386;2022-10-01T11:24:45;18.30;70.70
70801;DHT22;59616;52.170;5.386;2022-10-01T11:30:41;17.80;71.10
70801;DHT22;59616;52.170;5.386;2022-10-01T11:33:09;17.50;71.40
70801;DHT22;59616;52.170;5.386;2022-10-01T11:35:56;17.20;71.80
70801;DHT22;59616;52.170;5.386;2022-10-01T11:38:36;17.10;72.10
70801;DHT22;59616;52.170;5.386;2022-10-01T11:51:47;17.60;71.60
70801;DHT22;59616;52.170;5.386;2022-10-01T11:54:21;18.00;71.10
70801;DHT22;59616;52.170;5.386;2022-10-01T11:56:54;18.50;70.60
70801;DHT22;59616;52.170;5.386;2022-10-01T11:59:47;18.70;69.80
70801;DHT22;59616;52.170;5.386;2022-10-01T12:02:47;18.50;69.10
70801;DHT22;59616;52.170;5.386;2022-10-01T12:05:20;18.40;69.30
70801;DHT22;59616;52.170;5.386;2022-10-01T12:15:42;18.00;69.80
70801;DHT22;59616;52.170;5.386;2022-10-01T12:18:19;18.00;69.60
70801;DHT22;59616;52.170;5.386;2022-10-01T12:20:53;18.10;69.70
70801;DHT22;59616;52.170;5.386;2022-10-01T12:23:31;18.30;69.70
70801;DHT22;59616;52.170;5.386;2022-10-01T12:28:57;19.00;68.80
70801;DHT22;59616;52.170;5.386;2022-10-01T12:34:15;19.20;67.10
70801;DHT22;59616;52.170;5.386;2022-10-01T12:39:42;19.00;66.30
70801;DHT22;59616;52.170;5.386;2022-10-01T12:47:54;18.40;67.00
70801;DHT22;59616;52.170;5.386;2022-10-01T12:50:39;18.20;67.10
70801;DHT22;59616;52.170;5.386;2022-10-01T12:53:24;17.90;67.00
70801;DHT22;59616;52.170;5.386;2022-10-01T12:56:05;17.80;67.80
70801;DHT22;59616;52.170;5.386;2022-10-01T12:58:51;17.90;67.80
70801;DHT22;59616;52.170;5.386;2022-10-01T13:10:25;18.10;66.30
70801;DHT22;59616;52.170;5.386;2022-10-01T13:13:12;18.00;66.70
70801;DHT22;59616;52.170;5.386;2022-10-01T13:15:47;17.80;67.00
70801;DHT22;59616;52.170;5.386;2022-10-01T13:21:16;17.70;67.40
70801;DHT22;59616;52.170;5.386;2022-10-01T13:23:58;17.60;67.80
70801;DHT22;59616;52.170;5.386;2022-10-01T13:26:58;17.50;67.90
70801;DHT22;59616;52.170;5.386;2022-10-01T13:29:59;17.50;67.90
70801;DHT22;59616;52.170;5.386;2022-10-01T13:32:34;17.70;67.90
70801;DHT22;59616;52.170;5.386;2022-10-01T13:35:27;17.80;67.90
70801;DHT22;59616;52.170;5.386;2022-10-01T13:38:12;18.00;67.20
70801;DHT22;59616;52.170;5.386;2022-10-01T13:40:40;18.00;66.60
70801;DHT22;59616;52.170;5.386;2022-10-01T13:43:14;18.00;66.40
70801;DHT22;59616;52.170;5.386;2022-10-01T13:45:44;18.00;66.70
70801;DHT22;59616;52.170;5.386;2022-10-01T13:48:15;17.90;67.10
70801;DHT22;59616;52.170;5.386;2022-10-01T13:53:34;17.90;68.10
70801;DHT22;59616;52.170;5.386;2022-10-01T13:56:03;17.90;67.90
70801;DHT22;59616;52.170;5.386;2022-10-01T13:58:38;18.10;68.60
70801;DHT22;59616;52.170;5.386;2022-10-01T14:01:30;18.20;67.00
70801;DHT22;59616;52.170;5.386;2022-10-01T14:04:15;18.20;66.60
70801;DHT22;59616;52.170;5.386;2022-10-01T14:06:53;18.10;67.00
70801;DHT22;59616;52.170;5.386;2022-10-01T14:09:34;18.00;67.00
70801;DHT22;59616;52.170;5.386;2022-10-01T14:15:01;18.00;66.90
70801;DHT22;59616;52.170;5.386;2022-10-01T14:17:56;18.10;66.30
70801;DHT22;59616;52.170;5.386;2022-10-01T14:20:35;18.20;66.30
70801;DHT22;59616;52.170;5.386;2022-10-01T14:23:14;18.40;65.90
70801;DHT22;59616;52.170;5.386;2022-10-01T14:31:51;18.90;63.90
70801;DHT22;59616;52.170;5.386;2022-10-01T14:34:37;18.80;64.00
70801;DHT22;59616;52.170;5.386;2022-10-01T14:37:10;18.60;63.80
70801;DHT22;59616;52.170;5.386;2022-10-01T14:39:42;18.40;64.50
70801;DHT22;59616;52.170;5.386;2022-10-01T14:42:15;18.30;65.70
70801;DHT22;59616;52.170;5.386;2022-10-01T14:44:44;18.10;66.60
70801;DHT22;59616;52.170;5.386;2022-10-01T14:47:18;17.90;67.90
70801;DHT22;59616;52.170;5.386;2022-10-01T14:49:46;17.90;69.20
70801;DHT22;59616;52.170;5.386;2022-10-01T14:52:24;17.90;69.60
70801;DHT22;59616;52.170;5.386;2022-10-01T14:55:03;17.80;69.90
70801;DHT22;59616;52.170;5.386;2022-10-01T14:57:43;17.50;70.30
70801;DHT22;59616;52.170;5.386;2022-10-01T15:00:17;17.20;71.20
70801;DHT22;59616;52.170;5.386;2022-10-01T15:02:52;17.10;72.00
70801;DHT22;59616;52.170;5.386;2022-10-01T15:05:30;17.00;73.50
70801;DHT22;59616;52.170;5.386;2022-10-01T15:07:56;16.90;73.00
70801;DHT22;59616;52.170;5.386;2022-10-01T15:10:26;16.80;73.40
70801;DHT22;59616;52.170;5.386;2022-10-01T15:12:54;16.60;73.90
70801;DHT22;59616;52.170;5.386;2022-10-01T15:15:34;16.60;74.20
70801;DHT22;59616;52.170;5.386;2022-10-01T15:18:04;16.50;74.20
70801;DHT22;59616;52.170;5.386;2022-10-01T15:20:31;16.40;74.20
70801;DHT22;59616;52.170;5.386;2022-10-01T15:22:58;16.40;74.20
70801;DHT22;59616;52.170;5.386;2022-10-01T15:25:28;16.40;74.40
70801;DHT22;59616;52.170;5.386;2022-10-01T15:27:55;16.50;74.50
70801;DHT22;59616;52.170;5.386;2022-10-01T15:30:24;16.40;74.30
70801;DHT22;59616;52.170;5.386;2022-10-01T15:32:53;16.40;74.30
70801;DHT22;59616;52.170;5.386;2022-10-01T15:35:21;16.40;74.40
70801;DHT22;59616;52.170;5.386;2022-10-01T15:37:49;16.40;74.20
70801;DHT22;59616;52.170;5.386;2022-10-01T15:40:28;16.50;74.20
70801;DHT22;59616;52.170;5.386;2022-10-01T15:43:20;16.40;73.90
70801;DHT22;59616;52.170;5.386;2022-10-01T15:48:31;16.40;73.90
70801;DHT22;59616;52.170;5.386;2022-10-01T15:51:01;16.40;74.00
70801;DHT22;59616;52.170;5.386;2022-10-01T15:53:29;16.40;74.10
70801;DHT22;59616;52.170;5.386;2022-10-01T15:55:58;16.40;74.10
70801;DHT22;59616;52.170;5.386;2022-10-01T15:58:28;16.40;73.90
70801;DHT22;59616;52.170;5.386;2022-10-01T16:01:02;16.40;74.10
70801;DHT22;59616;52.170;5.386;2022-10-01T16:06:24;16.50;73.70
70801;DHT22;59616;52.170;5.386;2022-10-01T16:11:26;16.40;73.30
70801;DHT22;59616;52.170;5.386;2022-10-01T16:16:49;16.30;73.70
70801;DHT22;59616;52.170;5.386;2022-10-01T16:19:29;16.20;73.80
70801;DHT22;59616;52.170;5.386;2022-10-01T16:22:22;16.10;73.90
70801;DHT22;59616;52.170;5.386;2022-10-01T16:25:00;16.00;74.20
70801;DHT22;59616;52.170;5.386;2022-10-01T16:27:33;16.00;74.50
70801;DHT22;59616;52.170;5.386;2022-10-01T16:30:03;15.90;74.70
70801;DHT22;59616;52.170;5.386;2022-10-01T16:32:35;15.90;74.90
70801;DHT22;59616;52.170;5.386;2022-10-01T16:37:41;15.80;75.00
70801;DHT22;59616;52.170;5.386;2022-10-01T16:40:09;15.70;75.10
70801;DHT22;59616;52.170;5.386;2022-10-01T16:42:42;15.80;75.20
70801;DHT22;59616;52.170;5.386;2022-10-01T16:45:23;15.70;75.00
70801;DHT22;59616;52.170;5.386;2022-10-01T16:47:51;15.80;74.90
70801;DHT22;59616;52.170;5.386;2022-10-01T16:50:20;15.80;74.80
70801;DHT22;59616;52.170;5.386;2022-10-01T16:52:51;15.80;75.00
70801;DHT22;59616;52.170;5.386;2022-10-01T16:55:25;15.70;74.80
70801;DHT22;59616;52.170;5.386;2022-10-01T16:57:53;15.80;75.00
70801;DHT22;59616;52.170;5.386;2022-10-01T17:00:22;15.70;74.70
70801;DHT22;59616;52.170;5.386;2022-10-01T17:02:49;15.70;74.70
70801;DHT22;59616;52.170;5.386;2022-10-01T17:05:21;15.90;74.70
70801;DHT22;59616;52.170;5.386;2022-10-01T17:07:48;15.80;74.50
70801;DHT22;59616;52.170;5.386;2022-10-01T17:10:17;15.80;74.40
70801;DHT22;59616;52.170;5.386;2022-10-01T17:12:45;15.70;74.40
70801;DHT22;59616;52.170;5.386;2022-10-01T17:15:21;15.70;74.50
70801;DHT22;59616;52.170;5.386;2022-10-01T17:17:48;15.60;74.70
70801;DHT22;59616;52.170;5.386;2022-10-01T17:20:15;15.60;74.60
70801;DHT22;59616;52.170;5.386;2022-10-01T17:22:42;15.60;74.60
70801;DHT22;59616;52.170;5.386;2022-10-01T17:25:17;15.50;74.70
70801;DHT22;59616;52.170;5.386;2022-10-01T17:27:44;15.50;74.70
70801;DHT22;59616;52.170;5.386;2022-10-01T17:30:11;15.40;74.80
70801;DHT22;59616;52.170;5.386;2022-10-01T17:32:38;15.40;75.00
70801;DHT22;59616;52.170;5.386;2022-10-01T17:35:10;15.30;75.10
70801;DHT22;59616;52.170;5.386;2022-10-01T17:37:37;15.20;75.20
70801;DHT22;59616;52.170;5.386;2022-10-01T17:40:05;15.20;75.60
70801;DHT22;59616;52.170;5.386;2022-10-01T17:42:32;15.10;75.70
70801;DHT22;59616;52.170;5.386;2022-10-01T17:45:02;15.10;76.00
70801;DHT22;59616;52.170;5.386;2022-10-01T17:47:29;15.00;76.10
70801;DHT22;59616;52.170;5.386;2022-10-01T17:49:56;15.00;76.30
70801;DHT22;59616;52.170;5.386;2022-10-01T17:52:23;14.90;76.50
70801;DHT22;59616;52.170;5.386;2022-10-01T17:54:49;14.90;76.60
70801;DHT22;59616;52.170;5.386;2022-10-01T17:57:16;14.80;76.70
70801;DHT22;59616;52.170;5.386;2022-10-01T17:59:43;14.80;76.70
70801;DHT22;59616;52.170;5.386;2022-10-01T18:02:11;14.80;77.00